createdAt,value
2023-04-15T00:00:28.670Z,4.86
2023-04-15T00:01:28.710Z,4.88
2023-04-15T00:02:28.853Z,4.78
2023-04-15T00:03:29.011Z,4.75
2023-04-15T00:04:29.041Z,4.76
2023-04-15T00:05:31.632Z,4.79
2023-04-15T00:06:28.755Z,4.76
2023-04-15T00:07:28.809Z,4.78
2023-04-15T00:08:28.957Z,4.74
2023-04-15T00:09:28.812Z,4.75
2023-04-15T00:10:28.916Z,4.75
2023-04-15T00:11:28.977Z,4.77
2023-04-15T00:12:28.902Z,4.76
2023-04-15T00:13:28.880Z,4.73
2023-04-15T00:14:29.019Z,4.77
2023-04-15T00:15:28.956Z,4.7
2023-04-15T00:16:29.114Z,4.65
2023-04-15T00:17:29.063Z,4.63
2023-04-15T00:18:28.974Z,4.69
2023-04-15T00:19:29.267Z,4.7
2023-04-15T00:20:29.037Z,4.67
2023-04-15T00:21:29.120Z,4.64
2023-04-15T00:22:29.047Z,4.67
2023-04-15T00:23:29.085Z,4.64
2023-04-15T00:24:29.078Z,4.63
2023-04-15T00:25:29.318Z,4.62
2023-04-15T00:26:29.109Z,4.62
2023-04-15T00:27:29.151Z,4.58
2023-04-15T00:28:29.134Z,4.56
2023-04-15T00:29:29.162Z,4.56
2023-04-15T00:30:29.195Z,4.56
2023-04-15T00:31:29.893Z,4.59
2023-04-15T00:32:29.232Z,4.56
2023-04-15T00:33:29.226Z,4.56
2023-04-15T00:34:29.268Z,4.47
2023-04-15T00:35:29.585Z,4.47
2023-04-15T00:36:29.248Z,4.49
2023-04-15T00:37:29.313Z,4.5
2023-04-15T00:38:29.471Z,4.51
2023-04-15T00:39:29.336Z,4.48
2023-04-15T00:40:29.470Z,4.54
2023-04-15T00:41:29.495Z,4.46
2023-04-15T00:42:29.505Z,4.46
2023-04-15T00:43:29.411Z,4.43
2023-04-15T00:44:29.419Z,4.43
2023-04-15T00:45:29.599Z,4.39
2023-04-15T00:46:30.685Z,4.36
2023-04-15T00:47:30.234Z,4.35
2023-04-15T00:48:29.979Z,4.33
2023-04-15T00:49:29.643Z,4.3
2023-04-15T00:50:29.543Z,4.31
2023-04-15T00:51:29.576Z,4.32
2023-04-15T00:52:29.578Z,4.31
2023-04-15T00:53:29.554Z,4.33
2023-04-15T00:54:29.701Z,4.32
2023-04-15T00:55:29.660Z,4.35
2023-04-15T00:56:30.014Z,4.34
2023-04-15T00:57:29.973Z,4.3
2023-04-15T00:58:29.617Z,4.25
2023-04-15T00:59:30.732Z,4.24
2023-04-15T01:00:29.890Z,4.26
2023-04-15T01:01:29.950Z,4.28
2023-04-15T01:02:31.232Z,4.23
2023-04-15T01:03:30.213Z,4.24
2023-04-15T01:04:30.272Z,4.22
2023-04-15T01:05:30.134Z,4.19
2023-04-15T01:06:30.766Z,4.18
2023-04-15T01:07:30.079Z,4.16
2023-04-15T01:08:30.226Z,4.14
2023-04-15T01:09:29.806Z,4.07
2023-04-15T01:10:30.873Z,4.05
2023-04-15T01:11:30.535Z,4.12
2023-04-15T01:12:32.111Z,4.12
2023-04-15T01:13:30.252Z,4.1
2023-04-15T01:14:30.098Z,4.1
2023-04-15T01:15:30.274Z,4.05
2023-04-15T01:16:30.072Z,4.06
2023-04-15T01:17:30.277Z,4.05
2023-04-15T01:18:30.514Z,4.1
2023-04-15T01:19:30.405Z,4.15
2023-04-15T01:20:30.088Z,4.1
2023-04-15T01:21:29.975Z,4.11
2023-04-15T01:22:30.229Z,4.1
2023-04-15T01:23:30.164Z,4.1
2023-04-15T01:24:30.274Z,4.06
2023-04-15T01:25:33.886Z,4.04
2023-04-15T01:26:30.151Z,4.04
2023-04-15T01:27:30.230Z,4.03
2023-04-15T01:28:30.278Z,4.06
2023-04-15T01:29:32.356Z,4.03
2023-04-15T01:30:33.561Z,4.08
2023-04-15T01:31:30.246Z,4.03
2023-04-15T01:32:30.210Z,4.07
2023-04-15T01:33:30.223Z,4.04
2023-04-15T01:34:30.214Z,4.03
2023-04-15T01:35:30.227Z,4.06
2023-04-15T01:36:30.247Z,4.06
2023-04-15T01:37:30.471Z,4.02
2023-04-15T01:38:30.753Z,4
2023-04-15T01:39:30.310Z,3.95
2023-04-15T01:40:30.317Z,4
2023-04-15T01:41:30.304Z,4
2023-04-15T01:42:30.385Z,4
2023-04-15T01:43:30.585Z,4
2023-04-15T01:44:30.346Z,3.97
2023-04-15T01:45:30.568Z,4.02
2023-04-15T01:46:30.408Z,3.95
2023-04-15T01:47:30.540Z,3.98
2023-04-15T01:48:30.516Z,3.93
2023-04-15T01:49:30.444Z,3.96
2023-04-15T01:50:30.468Z,3.94
2023-04-15T01:51:30.460Z,3.92
2023-04-15T01:52:30.502Z,3.91
2023-04-15T01:53:30.468Z,3.93
2023-04-15T01:54:30.560Z,3.9
2023-04-15T01:55:30.519Z,3.87
2023-04-15T01:56:30.534Z,3.87
2023-04-15T01:57:30.575Z,3.87
2023-04-15T01:58:30.568Z,3.82
2023-04-15T01:59:30.943Z,3.83
2023-04-15T02:00:30.588Z,3.85
2023-04-15T02:01:30.703Z,3.82
2023-04-15T02:02:30.665Z,3.87
2023-04-15T02:03:30.734Z,3.85
2023-04-15T02:04:30.655Z,3.86
2023-04-15T02:05:30.681Z,3.89
2023-04-15T02:06:30.670Z,3.88
2023-04-15T02:07:30.692Z,3.86
2023-04-15T02:08:30.696Z,3.87
2023-04-15T02:09:30.711Z,3.84
2023-04-15T02:10:30.753Z,3.83
2023-04-15T02:11:30.745Z,3.85
2023-04-15T02:12:30.763Z,3.83
2023-04-15T02:13:30.774Z,3.79
2023-04-15T02:14:30.779Z,3.78
2023-04-15T02:15:30.849Z,3.78
2023-04-15T02:16:31.006Z,3.83
2023-04-15T02:17:33.934Z,3.79
2023-04-15T02:18:30.839Z,3.77
2023-04-15T02:19:30.855Z,3.8
2023-04-15T02:20:30.978Z,3.78
2023-04-15T02:21:30.939Z,3.82
2023-04-15T02:22:30.890Z,3.79
2023-04-15T02:23:30.884Z,3.77
2023-04-15T02:24:30.912Z,3.81
2023-04-15T02:25:30.929Z,3.79
2023-04-15T02:26:30.962Z,3.77
2023-04-15T02:27:31.090Z,3.77
2023-04-15T02:28:31.086Z,3.76
2023-04-15T02:29:31.804Z,3.77
2023-04-15T02:30:31.026Z,3.8
2023-04-15T02:31:31.097Z,3.78
2023-04-15T02:32:31.036Z,3.77
2023-04-15T02:33:31.062Z,3.76
2023-04-15T02:34:31.064Z,3.81
2023-04-15T02:35:31.195Z,3.8
2023-04-15T02:36:31.364Z,3.78
2023-04-15T02:37:31.706Z,3.84
2023-04-15T02:38:31.130Z,3.85
2023-04-15T02:39:31.150Z,3.78
2023-04-15T02:40:31.171Z,3.79
2023-04-15T02:41:31.226Z,3.72
2023-04-15T02:42:31.206Z,3.75
2023-04-15T02:43:31.192Z,3.79
2023-04-15T02:44:31.594Z,3.78
2023-04-15T02:45:31.222Z,3.77
2023-04-15T02:46:31.250Z,3.8
2023-04-15T02:47:31.375Z,3.82
2023-04-15T02:48:31.299Z,3.83
2023-04-15T02:49:31.255Z,3.8
2023-04-15T02:50:31.333Z,3.83
2023-04-15T02:51:31.344Z,3.86
2023-04-15T02:52:31.357Z,3.82
2023-04-15T02:53:31.293Z,3.81
2023-04-15T02:54:31.352Z,3.78
2023-04-15T02:55:31.509Z,3.77
2023-04-15T02:56:31.377Z,3.76
2023-04-15T02:57:31.391Z,3.76
2023-04-15T02:58:31.391Z,3.78
2023-04-15T02:59:31.413Z,3.72
2023-04-15T03:00:31.428Z,3.76
2023-04-15T03:01:31.498Z,3.75
2023-04-15T03:02:35.095Z,3.75
2023-04-15T03:03:31.527Z,3.8
2023-04-15T03:04:31.498Z,3.77
2023-04-15T03:05:31.797Z,3.73
2023-04-15T03:06:31.528Z,3.71
2023-04-15T03:07:31.666Z,3.68
2023-04-15T03:08:31.592Z,3.69
2023-04-15T03:09:31.566Z,3.71
2023-04-15T03:10:31.558Z,3.75
2023-04-15T03:11:32.255Z,3.7
2023-04-15T03:12:31.613Z,3.71
2023-04-15T03:13:31.585Z,3.69
2023-04-15T03:14:31.622Z,3.69
2023-04-15T03:15:32.745Z,3.65
2023-04-15T03:16:31.628Z,3.62
2023-04-15T03:17:31.864Z,3.61
2023-04-15T03:18:31.680Z,3.62
2023-04-15T03:19:31.739Z,3.63
2023-04-15T03:20:31.827Z,3.59
2023-04-15T03:21:31.665Z,3.57
2023-04-15T03:22:31.901Z,3.58
2023-04-15T03:23:32.016Z,3.6
2023-04-15T03:24:31.783Z,3.6
2023-04-15T03:25:31.772Z,3.58
2023-04-15T03:26:31.975Z,3.54
2023-04-15T03:27:31.796Z,3.56
2023-04-15T03:28:31.824Z,3.57
2023-04-15T03:29:31.849Z,3.56
2023-04-15T03:30:31.844Z,3.54
2023-04-15T03:31:31.862Z,3.53
2023-04-15T03:32:32.532Z,3.52
2023-04-15T03:33:32.499Z,3.5
2023-04-15T03:34:32.608Z,3.5
2023-04-15T03:35:32.593Z,3.5
2023-04-15T03:36:32.739Z,3.49
2023-04-15T03:37:32.576Z,3.47
2023-04-15T03:38:32.570Z,3.49
2023-04-15T03:39:32.601Z,3.5
2023-04-15T03:40:32.959Z,3.5
2023-04-15T03:41:32.640Z,3.46
2023-04-15T03:42:32.623Z,3.47
2023-04-15T03:43:32.761Z,3.45
2023-04-15T03:44:32.695Z,3.45
2023-04-15T03:45:32.962Z,3.44
2023-04-15T03:46:32.802Z,3.41
2023-04-15T03:47:32.784Z,3.42
2023-04-15T03:48:32.749Z,3.42
2023-04-15T03:49:32.860Z,3.43
2023-04-15T03:50:32.742Z,3.4
2023-04-15T03:51:32.756Z,3.41
2023-04-15T03:52:32.789Z,3.37
2023-04-15T03:53:32.819Z,3.4
2023-04-15T03:54:32.823Z,3.39
2023-04-15T03:55:32.829Z,3.44
2023-04-15T03:56:32.833Z,3.39
2023-04-15T03:57:32.851Z,3.38
2023-04-15T03:58:32.882Z,3.4
2023-04-15T03:59:32.858Z,3.4
2023-04-15T04:00:32.958Z,3.41
2023-04-15T04:01:32.923Z,3.44
2023-04-15T04:02:33.076Z,3.36
2023-04-15T04:03:33.029Z,3.42
2023-04-15T04:04:33.074Z,3.45
2023-04-15T04:05:33.131Z,3.44
2023-04-15T04:06:33.227Z,3.47
2023-04-15T04:07:32.966Z,3.44
2023-04-15T04:08:32.991Z,3.46
2023-04-15T04:09:32.997Z,3.44
2023-04-15T04:10:33.014Z,3.44
2023-04-15T04:11:33.046Z,3.44
2023-04-15T04:12:33.021Z,3.47
2023-04-15T04:13:33.054Z,3.48
2023-04-15T04:14:33.066Z,3.47
2023-04-15T04:15:33.124Z,3.48
2023-04-15T04:16:33.147Z,3.46
2023-04-15T04:17:33.351Z,3.47
2023-04-15T04:18:33.143Z,3.49
2023-04-15T04:19:33.150Z,3.49
2023-04-15T04:20:33.431Z,3.49
2023-04-15T04:21:33.802Z,3.49
2023-04-15T04:22:37.531Z,3.49
2023-04-15T04:23:33.737Z,3.51
2023-04-15T04:24:33.744Z,3.53
2023-04-15T04:25:33.741Z,3.53
2023-04-15T04:26:33.943Z,3.55
2023-04-15T04:27:34.131Z,3.52
2023-04-15T04:28:33.848Z,3.56
2023-04-15T04:29:33.820Z,3.56
2023-04-15T04:30:35.284Z,3.56
2023-04-15T04:31:33.917Z,3.57
2023-04-15T04:32:33.916Z,3.55
2023-04-15T04:33:34.038Z,3.54
2023-04-15T04:34:33.905Z,3.56
2023-04-15T04:35:33.868Z,3.57
2023-04-15T04:36:34.056Z,3.58
2023-04-15T04:37:33.926Z,3.59
2023-04-15T04:38:33.965Z,3.59
2023-04-15T04:39:33.973Z,3.59
2023-04-15T04:40:34.053Z,3.59
2023-04-15T04:41:33.990Z,3.57
2023-04-15T04:42:34.009Z,3.57
2023-04-15T04:43:33.968Z,3.57
2023-04-15T04:44:34.011Z,3.57
2023-04-15T04:45:34.069Z,3.59
2023-04-15T04:46:34.043Z,3.6
2023-04-15T04:47:34.109Z,3.61
2023-04-15T04:48:34.062Z,3.6
2023-04-15T04:49:34.083Z,3.6
2023-04-15T04:50:34.761Z,3.63
2023-04-15T04:51:34.254Z,3.63
2023-04-15T04:52:34.220Z,3.68
2023-04-15T04:53:34.586Z,3.66
2023-04-15T04:54:34.144Z,3.69
2023-04-15T04:55:34.177Z,3.71
2023-04-15T04:56:34.186Z,3.72
2023-04-15T04:57:34.425Z,3.74
2023-04-15T04:58:34.217Z,3.75
2023-04-15T04:59:34.183Z,3.75
2023-04-15T05:00:34.414Z,3.77
2023-04-15T05:01:34.359Z,3.78
2023-04-15T05:02:34.557Z,3.76
2023-04-15T05:03:34.351Z,3.8
2023-04-15T05:04:34.256Z,3.81
2023-04-15T05:05:34.353Z,3.8
2023-04-15T05:06:34.329Z,3.8
2023-04-15T05:07:34.443Z,3.8
2023-04-15T05:08:34.425Z,3.85
2023-04-15T05:09:34.388Z,3.84
2023-04-15T05:10:34.405Z,3.89
2023-04-15T05:11:34.390Z,3.98
2023-04-15T05:12:35.345Z,3.94
2023-04-15T05:13:34.380Z,3.95
2023-04-15T05:14:34.530Z,3.99
2023-04-15T05:15:34.467Z,3.99
2023-04-15T05:16:34.449Z,3.97
2023-04-15T05:17:34.674Z,3.98
2023-04-15T05:18:34.531Z,4.11
2023-04-15T05:19:34.513Z,4.04
2023-04-15T05:20:34.535Z,4.04
2023-04-15T05:21:34.498Z,4.1
2023-04-15T05:22:34.596Z,4.13
2023-04-15T05:23:34.602Z,4.11
2023-04-15T05:24:34.594Z,4.11
2023-04-15T05:25:34.578Z,4.22
2023-04-15T05:26:34.589Z,4.19
2023-04-15T05:27:34.617Z,4.14
2023-04-15T05:28:34.636Z,4.21
2023-04-15T05:29:34.622Z,4.22
2023-04-15T05:30:34.679Z,4.25
2023-04-15T05:31:34.859Z,4.24
2023-04-15T05:32:34.753Z,4.28
2023-04-15T05:33:34.714Z,4.33
2023-04-15T05:34:34.707Z,4.31
2023-04-15T05:35:34.727Z,4.36
2023-04-15T05:36:34.700Z,4.39
2023-04-15T05:37:34.789Z,4.46
2023-04-15T05:38:34.773Z,4.48
2023-04-15T05:39:34.715Z,4.48
2023-04-15T05:40:34.760Z,4.5
2023-04-15T05:41:34.794Z,4.5
2023-04-15T05:42:35.085Z,4.58
2023-04-15T05:43:34.800Z,4.58
2023-04-15T05:44:34.819Z,4.58
2023-04-15T05:45:34.832Z,4.6
2023-04-15T05:46:34.881Z,4.63
2023-04-15T05:47:37.865Z,4.69
2023-04-15T05:48:34.848Z,4.82
2023-04-15T05:49:34.901Z,4.83
2023-04-15T05:50:35.051Z,4.81
2023-04-15T05:51:34.960Z,4.86
2023-04-15T05:52:35.192Z,4.84
2023-04-15T05:53:34.958Z,4.9
2023-04-15T05:54:35.020Z,4.93
2023-04-15T05:55:34.983Z,5.07
2023-04-15T05:56:34.984Z,5.15
2023-04-15T05:57:35.017Z,5.12
2023-04-15T05:58:35.325Z,5.11
2023-04-15T05:59:35.044Z,5.11
2023-04-15T06:00:35.085Z,5.18
2023-04-15T06:01:35.162Z,5.32
2023-04-15T06:02:35.276Z,5.29
2023-04-15T06:03:35.196Z,5.26
2023-04-15T06:04:35.258Z,5.31
2023-04-15T06:05:35.126Z,5.39
2023-04-15T06:06:35.104Z,5.39
2023-04-15T06:07:35.920Z,5.48
2023-04-15T06:08:35.156Z,5.5
2023-04-15T06:09:35.379Z,5.29
2023-04-15T06:10:35.772Z,5.39
2023-04-15T06:11:35.196Z,5.43
2023-04-15T06:12:35.362Z,5.44
2023-04-15T06:13:35.220Z,5.48
2023-04-15T06:14:35.235Z,5.48
2023-04-15T06:15:35.280Z,5.52
2023-04-15T06:16:35.365Z,5.57
2023-04-15T06:17:35.399Z,5.66
2023-04-15T06:18:35.259Z,5.75
2023-04-15T06:19:35.776Z,5.76
2023-04-15T06:20:35.477Z,5.48
2023-04-15T06:21:35.364Z,5.54
2023-04-15T06:22:36.744Z,5.53
2023-04-15T06:23:35.596Z,5.46
2023-04-15T06:24:35.369Z,5.51
2023-04-15T06:25:35.573Z,5.57
2023-04-15T06:26:35.406Z,5.57
2023-04-15T06:27:35.435Z,5.64
2023-04-15T06:28:35.439Z,5.71
2023-04-15T06:29:35.425Z,5.71
2023-04-15T06:30:35.502Z,5.77
2023-04-15T06:31:35.506Z,5.68
2023-04-15T06:32:35.595Z,5.6
2023-04-15T06:33:35.482Z,5.64
2023-04-15T06:34:35.502Z,5.71
2023-04-15T06:35:35.530Z,5.89
2023-04-15T06:36:35.527Z,5.83
2023-04-15T06:37:35.552Z,5.86
2023-04-15T06:38:35.552Z,5.98
2023-04-15T06:39:35.576Z,5.99
2023-04-15T06:40:35.740Z,5.82
2023-04-15T06:41:35.890Z,5.87
2023-04-15T06:42:35.946Z,5.75
2023-04-15T06:43:35.677Z,5.9
2023-04-15T06:44:36.072Z,5.99
2023-04-15T06:45:35.702Z,6.08
2023-04-15T06:46:35.734Z,6.04
2023-04-15T06:47:35.736Z,6.07
2023-04-15T06:48:35.710Z,6.05
2023-04-15T06:49:35.738Z,6.14
2023-04-15T06:50:35.813Z,6.07
2023-04-15T06:51:35.894Z,6.14
2023-04-15T06:52:35.891Z,6.09
2023-04-15T06:53:35.817Z,6.01
2023-04-15T06:54:35.897Z,5.92
2023-04-15T06:55:35.821Z,5.82
2023-04-15T06:56:36.009Z,5.77
2023-04-15T06:57:35.885Z,5.76
2023-04-15T06:58:35.892Z,6.04
2023-04-15T06:59:35.903Z,6.09
2023-04-15T07:00:35.939Z,6.26
2023-04-15T07:01:36.146Z,6.07
2023-04-15T07:02:36.139Z,6.1
2023-04-15T07:03:35.981Z,6.14
2023-04-15T07:04:36.121Z,6.11
2023-04-15T07:05:35.978Z,6.12
2023-04-15T07:06:36.180Z,6.17
2023-04-15T07:07:36.027Z,6.25
2023-04-15T07:08:36.068Z,6.28
2023-04-15T07:09:36.072Z,6.28
2023-04-15T07:10:36.236Z,6.26
2023-04-15T07:11:36.223Z,6.47
2023-04-15T07:12:36.113Z,6.44
2023-04-15T07:13:36.104Z,6.51
2023-04-15T07:14:36.113Z,6.54
2023-04-15T07:15:36.181Z,6.49
2023-04-15T07:16:36.223Z,6.39
2023-04-15T07:17:36.322Z,6.46
2023-04-15T07:18:36.240Z,6.5
2023-04-15T07:19:36.228Z,6.58
2023-04-15T07:20:36.245Z,6.4
2023-04-15T07:21:36.283Z,6.47
2023-04-15T07:22:36.315Z,6.46
2023-04-15T07:23:36.286Z,6.4
2023-04-15T07:24:36.301Z,6.43
2023-04-15T07:25:36.355Z,6.54
2023-04-15T07:26:36.357Z,6.67
2023-04-15T07:27:36.402Z,6.84
2023-04-15T07:28:36.371Z,6.84
2023-04-15T07:29:36.409Z,6.86
2023-04-15T07:30:36.606Z,6.87
2023-04-15T07:31:36.487Z,6.77
2023-04-15T07:32:36.480Z,6.75
2023-04-15T07:33:36.421Z,6.73
2023-04-15T07:34:36.454Z,6.71
2023-04-15T07:35:36.494Z,6.66
2023-04-15T07:36:36.483Z,6.49
2023-04-15T07:37:36.560Z,6.32
2023-04-15T07:38:36.520Z,6.46
2023-04-15T07:39:36.741Z,6.64
2023-04-15T07:40:36.587Z,6.71
2023-04-15T07:41:36.582Z,6.75
2023-04-15T07:42:36.607Z,6.67
2023-04-15T07:43:36.603Z,6.62
2023-04-15T07:44:36.637Z,6.85
2023-04-15T07:45:36.610Z,6.82
2023-04-15T07:46:36.751Z,6.92
2023-04-15T07:47:36.834Z,6.89
2023-04-15T07:48:37.567Z,7.17
2023-04-15T07:49:36.694Z,6.96
2023-04-15T07:50:36.755Z,6.76
2023-04-15T07:51:36.750Z,6.93
2023-04-15T07:52:36.757Z,6.9
2023-04-15T07:53:36.778Z,6.88
2023-04-15T07:54:36.775Z,7
2023-04-15T07:55:36.793Z,7.19
2023-04-15T07:56:36.799Z,7.61
2023-04-15T07:57:37.054Z,7.59
2023-04-15T07:58:36.860Z,7.65
2023-04-15T07:59:36.864Z,7.81
2023-04-15T08:00:36.969Z,7.65
2023-04-15T08:01:37.136Z,7.61
2023-04-15T08:02:38.305Z,7.6
2023-04-15T08:03:37.121Z,7.85
2023-04-15T08:04:37.088Z,7.8
2023-04-15T08:05:36.944Z,7.5
2023-04-15T08:06:36.965Z,7.66
2023-04-15T08:07:37.746Z,8.24
2023-04-15T08:08:37.020Z,8.33
2023-04-15T08:09:37.051Z,8.21
2023-04-15T08:10:37.551Z,8.04
2023-04-15T08:11:37.062Z,8
2023-04-15T08:12:37.111Z,7.9
2023-04-15T08:13:37.244Z,7.89
2023-04-15T08:14:37.107Z,7.93
2023-04-15T08:15:37.117Z,7.97
2023-04-15T08:16:37.282Z,7.71
2023-04-15T08:17:37.357Z,7.65
2023-04-15T08:18:37.185Z,7.6
2023-04-15T08:19:37.193Z,7.6
2023-04-15T08:20:37.236Z,7.51
2023-04-15T08:21:37.351Z,7.46
2023-04-15T08:22:37.270Z,7.47
2023-04-15T08:23:37.529Z,7.75
2023-04-15T08:24:37.293Z,7.55
2023-04-15T08:25:37.275Z,7.81
2023-04-15T08:26:37.269Z,7.93
2023-04-15T08:27:37.316Z,8.32
2023-04-15T08:28:40.850Z,8.58
2023-04-15T08:29:37.336Z,8.49
2023-04-15T08:30:37.341Z,8.14
2023-04-15T08:31:37.417Z,8.37
2023-04-15T08:32:37.473Z,7.96
2023-04-15T08:33:37.394Z,7.86
2023-04-15T08:34:37.405Z,7.72
2023-04-15T08:35:37.438Z,7.78
2023-04-15T08:36:37.467Z,7.81
2023-04-15T08:37:37.444Z,7.92
2023-04-15T08:38:37.485Z,8.17
2023-04-15T08:39:37.503Z,8.05
2023-04-15T08:40:41.309Z,8.04
2023-04-15T08:42:45.027Z,8.09
2023-04-15T08:44:43.057Z,8.16
2023-04-15T08:45:43.954Z,8.5
2023-04-15T08:46:42.895Z,8.18
2023-04-15T08:47:43.084Z,8.05
2023-04-15T08:48:43.242Z,8.12
2023-04-15T08:49:43.308Z,8.25
2023-04-15T08:50:43.256Z,8.57
2023-04-15T08:51:43.384Z,8.49
2023-04-15T08:52:43.086Z,8.65
2023-04-15T08:53:43.890Z,8.69
2023-04-15T08:54:43.075Z,8.92
2023-04-15T08:55:44.301Z,9.04
2023-04-15T08:56:43.005Z,8.88
2023-04-15T08:57:43.048Z,8.63
2023-04-15T08:58:43.959Z,8.83
2023-04-15T08:59:43.722Z,9.25
2023-04-15T09:00:43.564Z,9.21
2023-04-15T09:01:43.990Z,9.21
2023-04-15T09:02:43.871Z,8.81
2023-04-15T09:03:43.854Z,9.08
2023-04-15T09:04:43.620Z,9.24
2023-04-15T09:05:43.881Z,8.97
2023-04-15T09:06:43.674Z,8.51
2023-04-15T09:07:43.781Z,8.38
2023-04-15T09:08:43.873Z,8.9
2023-04-15T09:09:43.745Z,8.88
2023-04-15T09:10:43.741Z,8.72
2023-04-15T09:11:43.778Z,8.89
2023-04-15T09:12:43.833Z,9.33
2023-04-15T09:13:44.211Z,9.69
2023-04-15T09:14:45.572Z,9.23
2023-04-15T09:15:43.820Z,9.17
2023-04-15T09:17:46.700Z,9.17
2023-04-15T09:18:46.289Z,9.68
2023-04-15T09:19:46.286Z,9.63
2023-04-15T09:20:46.323Z,9.45
2023-04-15T09:21:47.643Z,9.01
2023-04-15T09:22:47.373Z,8.9
2023-04-15T09:24:50.227Z,8.8
2023-04-15T09:25:50.580Z,9.12
2023-04-15T09:26:53.885Z,9.14
2023-04-15T09:27:50.601Z,9.14
2023-04-15T09:28:50.312Z,9.28
2023-04-15T09:29:50.474Z,9.03
2023-04-15T09:30:51.508Z,9.7
2023-04-15T09:31:50.372Z,9.6
2023-04-15T09:32:57.629Z,9.72
2023-04-15T09:33:54.930Z,9.38
2023-04-15T09:34:53.915Z,9.57
2023-04-15T09:36:01.403Z,9.3
2023-04-15T09:36:57.692Z,9.25
2023-04-15T09:38:05.220Z,9.48
2023-04-15T09:39:01.544Z,9.99
2023-04-15T09:40:01.472Z,9.63
2023-04-15T09:41:01.457Z,9.52
2023-04-15T09:42:04.797Z,9.38
2023-04-15T09:43:01.962Z,9.89
2023-04-15T09:44:01.859Z,9.61
2023-04-15T09:45:11.161Z,9.18
2023-04-15T09:46:02.421Z,9.33
2023-04-15T09:47:02.475Z,9.38
2023-04-15T09:49:08.936Z,9.23
2023-04-15T09:50:06.100Z,9.16
2023-04-15T09:51:05.760Z,9.41
2023-04-15T09:52:06.644Z,9.75
2023-04-15T09:53:05.689Z,9.56
2023-04-15T09:54:05.731Z,9.77
2023-04-15T09:55:06.223Z,9.47
2023-04-15T09:56:06.100Z,9.5
2023-04-15T09:57:06.924Z,10.18
2023-04-15T09:58:09.315Z,9.97
2023-04-15T09:59:06.082Z,10.22
2023-04-15T10:00:07.289Z,10.11
2023-04-15T10:01:06.178Z,9.69
2023-04-15T10:02:06.543Z,9.63
2023-04-15T10:03:06.471Z,9.85
2023-04-15T10:04:07.099Z,10.19
2023-04-15T10:05:06.749Z,10.1
2023-04-15T10:06:06.568Z,10.02
2023-04-15T10:07:07.217Z,9.83
2023-04-15T10:08:06.415Z,9.95
2023-04-15T10:09:06.876Z,9.97
2023-04-15T10:10:06.808Z,9.86
2023-04-15T10:11:06.649Z,9.9
2023-04-15T10:12:06.499Z,10
2023-04-15T10:13:06.972Z,10.46
2023-04-15T10:14:08.415Z,10.54
2023-04-15T10:15:07.454Z,10.26
2023-04-15T10:16:15.029Z,9.96
2023-04-15T10:17:07.673Z,10.07
2023-04-15T10:18:08.144Z,10.09
2023-04-15T10:19:07.285Z,10.18
2023-04-15T10:20:07.806Z,10.2
2023-04-15T10:21:08.451Z,10.46
2023-04-15T10:22:07.593Z,10.4
2023-04-15T10:23:09.479Z,10.34
2023-04-15T10:24:07.330Z,10.41
2023-04-15T10:25:07.471Z,10.79
2023-04-15T10:26:07.544Z,10.74
2023-04-15T10:27:07.898Z,10.33
2023-04-15T10:28:07.485Z,10.41
2023-04-15T10:29:08.012Z,10.47
2023-04-15T10:30:08.173Z,10.91
2023-04-15T10:31:07.678Z,10.84
2023-04-15T10:32:07.699Z,11.26
2023-04-15T10:33:09.093Z,10.62
2023-04-15T10:34:07.513Z,10.83
2023-04-15T10:35:08.027Z,11.12
2023-04-15T10:36:07.640Z,10.83
2023-04-15T10:37:09.488Z,10.64
2023-04-15T10:41:21.892Z,10.75
2023-04-15T10:42:19.358Z,10.43
2023-04-15T10:43:25.055Z,10.33
2023-04-15T10:44:21.765Z,10.47
2023-04-15T10:45:21.823Z,10.36
2023-04-15T10:46:23.243Z,10.84
2023-04-15T10:47:22.256Z,10.97
2023-04-15T10:48:21.879Z,10.73
2023-04-15T10:49:25.732Z,10.5
2023-04-15T10:50:22.446Z,11.05
2023-04-15T10:51:31.332Z,10.99
2023-04-15T10:52:24.123Z,11.11
2023-04-15T10:53:29.678Z,11
2023-04-15T10:54:35.311Z,10.83
2023-04-15T10:55:27.228Z,10.55
2023-04-15T10:56:29.983Z,10.63
2023-04-15T10:57:34.056Z,11.08
2023-04-15T10:58:40.929Z,11.1
2023-04-15T10:59:33.146Z,10.9
2023-04-15T11:00:33.099Z,10.88
2023-04-15T11:03:40.443Z,10.57
2023-04-15T11:06:43.863Z,11.41
2023-04-15T11:07:41.437Z,11.23
2023-04-15T11:09:42.604Z,10.85
2023-04-15T11:10:52.272Z,11.2
2023-04-15T11:12:51.668Z,10.7
2023-04-15T11:13:49.549Z,11.12
2023-04-15T11:14:48.865Z,11.49
2023-04-15T11:15:49.570Z,10.95
2023-04-15T11:16:48.896Z,11.31
2023-04-15T11:17:48.918Z,10.83
2023-04-15T11:18:55.726Z,10.77
2023-04-15T11:19:52.477Z,11.26
2023-04-15T11:20:56.591Z,11.47
2023-04-15T11:21:53.317Z,11.27
2023-04-15T11:23:14.729Z,11.64
2023-04-15T11:23:55.017Z,11.69
2023-04-15T11:24:55.095Z,11.56
2023-04-15T11:25:55.335Z,11.63
2023-04-15T11:26:57.927Z,11.37
2023-04-15T11:27:55.565Z,11.32
2023-04-15T11:28:55.116Z,11.71
2023-04-15T11:29:55.118Z,11.94
2023-04-15T11:30:55.655Z,11.76
2023-04-15T11:32:59.146Z,11.55
2023-04-15T11:33:59.297Z,11.1
2023-04-15T11:34:58.175Z,11.57
2023-04-15T11:35:58.724Z,11.67
2023-04-15T11:36:58.203Z,11.73
2023-04-15T11:37:58.306Z,11.95
2023-04-15T11:38:58.807Z,11.72
2023-04-15T11:39:58.243Z,11.8
2023-04-15T11:40:58.443Z,11.79
2023-04-15T11:41:58.231Z,11.43
2023-04-15T11:44:01.399Z,11.77
2023-04-15T11:45:08.549Z,11.69
2023-04-15T11:46:05.476Z,11.63
2023-04-15T11:48:09.841Z,11.61
2023-04-15T11:49:08.802Z,12.01
2023-04-15T11:50:21.658Z,11.82
2023-04-15T11:51:13.753Z,11.65
2023-04-15T11:52:13.381Z,11.61
2023-04-15T11:53:13.996Z,11.74
2023-04-15T11:54:18.582Z,12.34
2023-04-15T11:55:15.527Z,12.73
2023-04-15T11:56:19.759Z,12.67
2023-04-15T11:57:16.539Z,12.32
2023-04-15T11:58:17.362Z,12.15
2023-04-15T11:59:16.544Z,12.26
2023-04-15T12:00:16.876Z,12.02
2023-04-15T12:01:16.605Z,11.59
2023-04-15T12:02:16.658Z,11.52
2023-04-15T12:03:30.159Z,11.47
2023-04-15T12:04:18.581Z,11.7
2023-04-15T12:05:17.262Z,11.74
2023-04-15T12:06:18.454Z,12.01
2023-04-15T12:07:17.121Z,11.64
2023-04-15T12:08:17.099Z,12.01
2023-04-15T12:09:17.065Z,11.9
2023-04-15T12:10:17.481Z,11.75
2023-04-15T12:11:17.178Z,11.58
2023-04-15T12:12:18.758Z,11.38
2023-04-15T12:13:17.146Z,11.37
2023-04-15T12:14:25.779Z,11.74
2023-04-15T12:15:17.506Z,12.01
2023-04-15T12:16:20.663Z,11.75
2023-04-15T12:17:17.663Z,12
2023-04-15T12:18:18.472Z,12.24
2023-04-15T12:19:19.101Z,12.13
2023-04-15T12:20:21.516Z,12.31
2023-04-15T12:21:25.232Z,12.78
2023-04-15T12:22:22.019Z,13.06
2023-04-15T12:23:22.169Z,13.46
2023-04-15T12:24:22.265Z,12.75
2023-04-15T12:25:32.819Z,13.13
2023-04-15T12:26:28.221Z,12.74
2023-04-15T12:27:27.155Z,13.03
2023-04-15T12:28:25.012Z,13.2
2023-04-15T12:29:26.074Z,12.64
2023-04-15T12:30:24.942Z,13.02
2023-04-15T12:31:24.981Z,13.06
2023-04-15T12:32:25.032Z,13.19
2023-04-15T12:33:32.709Z,13.1
2023-04-15T12:34:30.419Z,12.7
2023-04-15T12:35:29.417Z,12.62
2023-04-15T12:36:30.538Z,12.77
2023-04-15T12:37:29.454Z,12.45
2023-04-15T12:38:30.063Z,12.35
2023-04-15T12:39:30.982Z,12.62
2023-04-15T12:40:29.536Z,12.89
2023-04-15T12:41:29.577Z,12.94
2023-04-15T12:42:29.558Z,12.52
2023-04-15T12:43:29.566Z,13.18
2023-04-15T12:44:29.838Z,13.28
2023-04-15T12:45:30.073Z,13.51
2023-04-15T12:46:29.808Z,13.51
2023-04-15T12:47:29.692Z,13.79
2023-04-15T12:48:29.666Z,13.24
2023-04-15T12:49:30.480Z,13.63
2023-04-15T12:50:29.736Z,13.37
2023-04-15T12:51:29.792Z,13.14
2023-04-15T12:52:29.679Z,13.46
2023-04-15T12:53:29.746Z,13.61
2023-04-15T12:54:30.471Z,13.27
2023-04-15T12:55:29.779Z,12.91
2023-04-15T12:56:29.804Z,12.53
2023-04-15T12:57:29.810Z,12.63
2023-04-15T12:58:29.802Z,12.54
2023-04-15T12:59:29.857Z,12.39
2023-04-15T13:00:30.041Z,12.34
2023-04-15T13:01:29.899Z,12.36
2023-04-15T13:02:30.050Z,12.58
2023-04-15T13:03:30.069Z,12.74
2023-04-15T13:04:30.253Z,12.97
2023-04-15T13:05:29.889Z,13.02
2023-04-15T13:06:29.929Z,13.97
2023-04-15T13:07:29.937Z,13.73
2023-04-15T13:08:30.133Z,13.68
2023-04-15T13:09:29.990Z,13.86
2023-04-15T13:10:30.065Z,13.7
2023-04-15T13:11:30.497Z,13.37
2023-04-15T13:12:30.046Z,13.18
2023-04-15T13:13:30.062Z,13.39
2023-04-15T13:14:30.060Z,13.45
2023-04-15T13:15:30.062Z,13.33
2023-04-15T13:16:30.344Z,13.7
2023-04-15T13:17:30.420Z,13.44
2023-04-15T13:18:30.197Z,13.47
2023-04-15T13:19:30.343Z,12.8
2023-04-15T13:20:30.221Z,12.74
2023-04-15T13:21:30.326Z,12.64
2023-04-15T13:22:30.523Z,12.73
2023-04-15T13:23:30.249Z,12.77
2023-04-15T13:24:30.288Z,12.79
2023-04-15T13:25:30.321Z,12.71
2023-04-15T13:26:30.294Z,12.43
2023-04-15T13:27:30.379Z,12.58
2023-04-15T13:28:30.344Z,12.32
2023-04-15T13:29:30.357Z,12.41
2023-04-15T13:30:30.384Z,12.36
2023-04-15T13:31:30.465Z,12.63
2023-04-15T13:32:30.631Z,12.9
2023-04-15T13:33:30.932Z,12.91
2023-04-15T13:34:30.964Z,12.39